Time;durP1;ratioP1;P1;durP2;ratioP2;P2;SDS_P1;SDS_P2;PMS_P1;PMS_P2;Temp;Humidity;BMP_temperature;BMP_pressure;BME280_temperature;BME280_humidity;BME280_pressure;Samples;Min_cycle;Max_cycle;Signal;HPM_P1;HPM_P2
2021/12/06 00:02:10;;;;;;;23.83;9.70;;;4.30;99.90;;;;;;4918102;29;20023;-85
2021/12/06 00:04:37;;;;;;;25.00;10.02;;;4.30;99.90;;;;;;4936083;29;20028;-83
2021/12/06 00:07:09;;;;;;;21.60;10.07;;;4.30;99.90;;;;;;4936424;29;20028;-85
2021/12/06 00:09:36;;;;;;;22.17;10.07;;;4.20;99.90;;;;;;4972248;23;20027;-82
2021/12/06 00:12:03;;;;;;;20.95;9.38;;;4.20;99.90;;;;;;4953178;28;20083;-82
2021/12/06 00:14:36;;;;;;;20.95;8.77;;;4.20;99.90;;;;;;4977664;28;20065;-83
2021/12/06 00:17:06;;;;;;;20.73;8.98;;;4.20;99.90;;;;;;4971031;28;20070;-83
2021/12/06 00:19:32;;;;;;;19.85;8.80;;;4.20;99.90;;;;;;4986102;28;20016;-83
2021/12/06 00:22:01;;;;;;;19.02;9.18;;;4.20;99.90;;;;;;4978645;28;20035;-82
2021/12/06 00:24:27;;;;;;;19.90;8.98;;;4.20;99.90;;;;;;4977044;28;20050;-84
2021/12/06 00:26:53;;;;;;;17.65;8.55;;;4.10;99.90;;;;;;4957178;29;20855;-83
2021/12/06 00:29:19;;;;;;;18.63;9.48;;;4.10;99.90;;;;;;4953233;28;20031;-84
2021/12/06 00:31:46;;;;;;;18.77;8.05;;;4.10;99.90;;;;;;4966007;28;20060;-81
2021/12/06 00:34:16;;;;;;;16.90;8.40;;;4.00;99.90;;;;;;4950027;29;20020;-83
2021/12/06 00:36:53;;;;;;;18.63;8.73;;;4.10;99.90;;;;;;4947913;29;20019;-82
2021/12/06 00:39:20;;;;;;;17.67;8.10;;;4.10;99.90;;;;;;4965759;28;20046;-84
2021/12/06 00:41:46;;;;;;;14.07;7.55;;;4.10;99.90;;;;;;4973284;28;20085;-84
2021/12/06 00:44:12;;;;;;;14.50;6.82;;;4.10;99.90;;;;;;4947280;29;20055;-85
2021/12/06 00:46:39;;;;;;;17.75;7.20;;;4.00;99.90;;;;;;4951193;28;20120;-84
2021/12/06 00:49:10;;;;;;;18.17;7.45;;;4.00;99.90;;;;;;4948294;29;20027;-85
2021/12/06 00:51:36;;;;;;;14.13;7.05;;;4.00;99.90;;;;;;4953628;28;20048;-83
2021/12/06 00:54:03;;;;;;;12.50;7.38;;;4.00;99.90;;;;;;4977590;28;20019;-83
2021/12/06 00:56:29;;;;;;;12.65;7.00;;;4.00;99.90;;;;;;4982299;28;20053;-84
2021/12/06 00:58:55;;;;;;;10.80;6.63;;;3.90;99.90;;;;;;4982998;28;20023;-83
2021/12/06 01:01:22;;;;;;;9.93;6.18;;;3.90;99.90;;;;;;4982565;28;20019;-83
2021/12/06 01:03:48;;;;;;;9.52;6.15;;;3.90;99.90;;;;;;4964796;29;20036;-84
2021/12/06 01:06:14;;;;;;;9.55;6.32;;;3.90;99.90;;;;;;4979359;29;20046;-84
2021/12/06 01:08:40;;;;;;;10.70;6.28;;;3.80;99.90;;;;;;4973715;29;20032;-85
2021/12/06 01:11:09;;;;;;;10.52;6.15;;;3.80;99.90;;;;;;4960547;28;20039;-84
2021/12/06 01:13:35;;;;;;;10.73;5.65;;;3.80;99.90;;;;;;4965627;28;20032;-82
2021/12/06 01:16:01;;;;;;;9.88;5.30;;;3.70;99.90;;;;;;4965891;28;20027;-83
2021/12/06 01:18:27;;;;;;;10.68;5.28;;;3.70;99.90;;;;;;4965722;28;20032;-83
2021/12/06 01:21:07;;;;;;;7.20;4.70;;;3.80;99.90;;;;;;4981693;28;20015;-83
2021/12/06 01:23:57;;;;;;;7.18;4.88;;;3.70;99.90;;;;;;4979650;28;20043;-84
2021/12/06 01:39:06;;;;;;;7.35;4.30;;;3.70;99.90;;;;;;4952918;29;20042;-82
2021/12/06 01:39:36;;;;;;;6.25;4.10;;;3.70;99.90;;;;;;4964218;28;20035;-83
2021/12/06 01:42:05;;;;;;;7.55;4.38;;;3.70;99.90;;;;;;4964941;28;20027;-84
2021/12/06 01:44:35;;;;;;;8.10;4.70;;;3.60;99.90;;;;;;4965240;28;20023;-82
2021/12/06 01:47:12;;;;;;;7.95;4.70;;;3.60;99.90;;;;;;4981145;28;20087;-83
2021/12/06 01:49:42;;;;;;;7.53;4.57;;;3.60;99.90;;;;;;4965063;28;20019;-83
2021/12/06 01:52:19;;;;;;;8.07;4.80;;;3.60;99.90;;;;;;4965077;28;20118;-83
2021/12/06 01:54:46;;;;;;;7.05;4.80;;;3.70;99.90;;;;;;4981090;28;20027;-82
2021/12/06 01:57:12;;;;;;;6.60;4.22;;;3.70;99.90;;;;;;4965128;28;20042;-83
2021/12/06 01:59:39;;;;;;;8.23;4.90;;;3.70;99.90;;;;;;4964794;28;20034;-82
2021/12/06 02:02:05;;;;;;;6.97;4.40;;;3.80;99.90;;;;;;4981387;28;20039;-82
2021/12/06 02:04:32;;;;;;;6.78;3.92;;;3.80;99.90;;;;;;4964994;28;20043;-82
2021/12/06 02:06:59;;;;;;;7.28;3.83;;;3.80;99.90;;;;;;4981538;28;20007;-85
2021/12/06 02:09:27;;;;;;;4.90;3.30;;;3.80;99.90;;;;;;4981284;28;20086;-82
2021/12/06 02:12:02;;;;;;;5.38;3.80;;;3.70;99.90;;;;;;4949685;28;20031;-83
2021/12/06 02:14:46;;;;;;;5.82;3.50;;;3.80;99.90;;;;;;4980893;28;20035;-82
2021/12/06 02:17:21;;;;;;;6.35;3.58;;;3.70;99.90;;;;;;4965361;28;20019;-82
2021/12/06 02:19:54;;;;;;;7.27;4.33;;;3.70;99.90;;;;;;4981077;28;20034;-82
2021/12/06 02:22:24;;;;;;;6.57;3.65;;;3.70;99.90;;;;;;4965185;28;20090;-83
2021/12/06 02:24:53;;;;;;;5.38;3.45;;;3.70;99.90;;;;;;4965417;28;20023;-81
2021/12/06 02:27:22;;;;;;;5.57;3.45;;;3.60;99.90;;;;;;4965002;28;20012;-83
2021/12/06 02:29:49;;;;;;;5.55;3.22;;;3.60;99.90;;;;;;4980747;28;20038;-84
2021/12/06 02:32:16;;;;;;;5.18;3.47;;;3.60;99.90;;;;;;4980719;28;20034;-83
2021/12/06 02:34:48;;;;;;;10.82;4.03;;;3.50;99.90;;;;;;4980552;28;20103;-83
2021/12/06 02:37:19;;;;;;;7.28;3.78;;;3.60;99.90;;;;;;4981211;28;20011;-83
2021/12/06 02:39:45;;;;;;;6.25;3.70;;;3.60;99.90;;;;;;4981231;28;20020;-83
2021/12/06 02:42:14;;;;;;;4.68;3.30;;;3.60;99.90;;;;;;4964700;28;20042;-84
2021/12/06 02:44:42;;;;;;;6.82;3.90;;;3.60;99.90;;;;;;4981112;28;20027;-83
2021/12/06 02:47:08;;;;;;;5.85;3.47;;;3.60;99.90;;;;;;4964156;28;20066;-83
2021/12/06 02:49:35;;;;;;;6.93;3.67;;;3.60;99.90;;;;;;4979543;28;20062;-84
2021/12/06 02:52:01;;;;;;;4.93;3.58;;;3.60;99.90;;;;;;4980596;28;20016;-86
2021/12/06 02:54:28;;;;;;;6.75;3.65;;;3.60;99.90;;;;;;4980634;28;20051;-82
2021/12/06 02:57:06;;;;;;;6.15;3.55;;;3.60;99.90;;;;;;4964201;29;20280;-83
2021/12/06 02:59:35;;;;;;;5.07;3.55;;;3.70;99.90;;;;;;4980442;28;20016;-84
2021/12/06 03:02:04;;;;;;;6.90;3.67;;;3.60;99.90;;;;;;4964058;28;20019;-83
2021/12/06 03:04:31;;;;;;;6.05;3.92;;;3.60;99.90;;;;;;4980332;28;20091;-83
2021/12/06 03:06:58;;;;;;;8.75;4.32;;;3.60;99.90;;;;;;4948422;28;20026;-83
2021/12/06 03:09:33;;;;;;;9.80;4.53;;;3.60;99.90;;;;;;4964021;28;20080;-83
2021/12/06 03:12:07;;;;;;;;;;;3.50;99.90;;;;;;4980832;28;20042;-82
2021/12/06 03:14:56;;;;;;;8.63;5.15;;;3.50;99.90;;;;;;4963818;28;19937;-81
2021/12/06 03:17:29;;;;;;;9.45;5.60;;;3.50;99.90;;;;;;4980230;28;20043;-83
2021/12/06 03:19:57;;;;;;;9.20;5.85;;;3.40;99.90;;;;;;4979824;28;20027;-81
2021/12/06 03:22:26;;;;;;;10.30;5.80;;;3.40;99.90;;;;;;4963592;29;20011;-85
2021/12/06 03:24:54;;;;;;;10.55;6.57;;;3.40;99.90;;;;;;4980469;28;20030;-84
2021/12/06 03:27:20;;;;;;;10.70;6.68;;;3.40;99.90;;;;;;4948032;28;20015;-85
2021/12/06 03:29:49;;;;;;;15.75;7.35;;;3.40;99.90;;;;;;4978436;28;20051;-85
2021/12/06 03:32:16;;;;;;;12.13;7.13;;;3.50;99.90;;;;;;4959796;29;20091;-84
2021/12/06 03:34:42;;;;;;;12.13;7.72;;;3.50;99.90;;;;;;4972187;29;20499;-85
2021/12/06 03:37:09;;;;;;;16.27;8.23;;;3.50;99.90;;;;;;4960026;29;20027;-84
2021/12/06 03:39:43;;;;;;;15.10;8.73;;;3.50;99.90;;;;;;4959134;29;20050;-84
2021/12/06 03:42:14;;;;;;;15.80;8.65;;;3.60;99.90;;;;;;4977830;28;20055;-82
2021/12/06 03:44:41;;;;;;;18.20;8.85;;;3.60;99.90;;;;;;4976608;29;20053;-84
2021/12/06 03:47:12;;;;;;;16.70;9.57;;;3.60;99.90;;;;;;4962164;28;20063;-83
2021/12/06 03:49:42;;;;;;;17.10;8.50;;;3.70;99.90;;;;;;4978784;28;20083;-83
2021/12/06 03:52:10;;;;;;;18.75;9.27;;;3.70;99.90;;;;;;4978250;28;20038;-83
2021/12/06 03:54:37;;;;;;;17.70;9.30;;;3.70;99.90;;;;;;4958984;29;20031;-85
2021/12/06 03:57:04;;;;;;;16.98;8.18;;;3.80;99.90;;;;;;4944806;29;20055;-83
2021/12/06 03:59:31;;;;;;;16.90;9.63;;;3.80;99.90;;;;;;4962956;28;20032;-83
2021/12/06 04:01:57;;;;;;;15.85;9.15;;;3.80;99.90;;;;;;4963207;28;20036;-83
2021/12/06 04:04:25;;;;;;;15.38;8.85;;;3.90;99.90;;;;;;4960448;29;20046;-83
2021/12/06 04:06:52;;;;;;;18.52;9.00;;;3.90;99.90;;;;;;4976516;29;20026;-83
2021/12/06 04:09:19;;;;;;;16.05;9.00;;;3.90;99.90;;;;;;4959611;28;20030;-84
2021/12/06 04:11:45;;;;;;;15.27;9.10;;;3.90;99.90;;;;;;4971124;29;20031;-84
2021/12/06 04:14:12;;;;;;;18.10;8.82;;;3.90;99.90;;;;;;4958674;29;20036;-83
2021/12/06 04:16:39;;;;;;;16.33;9.10;;;3.90;99.90;;;;;;4959330;29;20027;-82
2021/12/06 04:19:07;;;;;;;16.30;8.85;;;3.90;99.90;;;;;;4957862;29;20071;-84
2021/12/06 04:21:34;;;;;;;14.65;8.13;;;3.90;99.90;;;;;;4975486;29;20027;-83
2021/12/06 04:24:01;;;;;;;16.73;9.20;;;3.80;99.90;;;;;;4956090;29;20491;-84
2021/12/06 04:26:27;;;;;;;15.30;9.18;;;3.80;99.90;;;;;;4949741;29;20094;-82
2021/12/06 04:28:59;;;;;;;15.40;8.20;;;3.80;99.90;;;;;;4950255;29;20491;-84
2021/12/06 04:31:42;;;;;;;14.38;8.50;;;3.90;99.90;;;;;;4954358;29;20050;-84
2021/12/06 04:34:09;;;;;;;16.85;8.77;;;3.80;99.90;;;;;;4953708;29;20507;-84
2021/12/06 04:36:36;;;;;;;18.42;9.13;;;3.90;99.90;;;;;;4953370;29;20039;-83
2021/12/06 04:39:06;;;;;;;19.00;9.75;;;3.90;99.90;;;;;;4970861;29;20603;-84
2021/12/06 04:41:32;;;;;;;17.85;9.32;;;3.90;99.90;;;;;;4949692;29;20087;-87
2021/12/06 04:43:58;;;;;;;17.83;9.88;;;3.90;99.90;;;;;;4949595;29;20050;-84
2021/12/06 04:46:24;;;;;;;18.73;9.98;;;3.90;99.90;;;;;;4967140;29;20043;-86
2021/12/06 04:48:50;;;;;;;17.35;10.02;;;3.90;99.90;;;;;;4965052;29;20110;-86
2021/12/06 04:51:17;;;;;;;19.77;9.85;;;3.90;99.90;;;;;;4932497;29;20027;-86
2021/12/06 04:53:45;;;;;;;25.23;10.73;;;3.90;99.90;;;;;;4964313;29;20036;-85
2021/12/06 04:56:33;;;;;;;28.52;11.43;;;3.90;99.90;;;;;;4950838;29;20024;-86
2021/12/06 04:59:20;;;;;;;20.92;10.88;;;3.90;99.90;;;;;;4968422;29;20037;-84
2021/12/06 05:01:50;;;;;;;29.70;10.95;;;3.90;99.90;;;;;;4955498;29;20424;-87
2021/12/06 05:04:23;;;;;;;22.88;10.63;;;3.90;99.90;;;;;;4969933;29;20098;-86
2021/12/06 05:06:55;;;;;;;24.77;11.45;;;3.90;99.90;;;;;;4965247;29;20055;-85
2021/12/06 05:09:33;;;;;;;26.40;11.10;;;3.90;99.90;;;;;;4970151;28;20031;-87
2021/12/06 05:12:03;;;;;;;21.02;10.70;;;3.90;99.90;;;;;;4953285;29;20027;-85
2021/12/06 05:14:29;;;;;;;23.65;11.30;;;3.90;99.90;;;;;;4951947;29;20038;-84
2021/12/06 05:16:56;;;;;;;23.85;11.20;;;3.90;99.90;;;;;;4952576;29;20091;-85
2021/12/06 05:19:22;;;;;;;23.73;11.00;;;3.90;99.90;;;;;;4952054;28;20020;-86
2021/12/06 05:21:48;;;;;;;29.60;11.60;;;3.90;99.90;;;;;;4968490;29;20109;-85
2021/12/06 05:24:17;;;;;;;24.15;10.95;;;3.90;99.90;;;;;;4950400;29;20038;-84
2021/12/06 05:26:44;;;;;;;21.27;10.23;;;4.00;99.90;;;;;;4949834;29;20027;-84
2021/12/06 05:29:17;;;;;;;28.52;11.30;;;3.90;99.90;;;;;;4950215;28;20027;-86
2021/12/06 05:31:43;;;;;;;23.27;11.50;;;4.00;99.90;;;;;;4966763;29;20041;-87
2021/12/06 05:34:15;;;;;;;22.67;11.27;;;4.00;99.90;;;;;;4951210;29;20064;-86
2021/12/06 05:36:43;;;;;;;33.50;11.50;;;4.00;99.90;;;;;;4967906;29;20119;-85
2021/12/06 05:39:09;;;;;;;21.77;11.20;;;4.00;99.90;;;;;;4950089;28;20019;-86
2021/12/06 05:41:36;;;;;;;24.35;11.00;;;4.00;99.90;;;;;;4965380;29;20054;-87
2021/12/06 05:44:04;;;;;;;23.92;10.95;;;4.00;99.90;;;;;;4964347;29;20063;-86
2021/12/06 05:46:30;;;;;;;23.77;11.70;;;4.00;99.90;;;;;;4967163;29;20051;-86
2021/12/06 05:48:55;;;;;;;24.83;11.23;;;4.00;99.90;;;;;;4966385;29;20480;-86
2021/12/06 05:51:21;;;;;;;29.27;11.27;;;4.00;99.90;;;;;;4967510;28;20039;-86
2021/12/06 05:53:47;;;;;;;25.92;11.80;;;4.00;99.90;;;;;;4965068;29;20023;-87
2021/12/06 05:56:13;;;;;;;25.17;12.57;;;4.00;99.90;;;;;;4947691;29;20438;-85
2021/12/06 05:58:40;;;;;;;23.98;11.05;;;4.00;99.90;;;;;;4964374;29;20042;-88
2021/12/06 06:01:06;;;;;;;28.15;12.55;;;3.90;99.90;;;;;;4965206;28;20028;-85
2021/12/06 06:03:32;;;;;;;31.85;12.07;;;3.90;99.90;;;;;;4964444;29;20031;-87
2021/12/06 06:05:57;;;;;;;23.30;11.85;;;3.90;99.90;;;;;;4964035;29;20043;-86
2021/12/06 06:08:23;;;;;;;25.85;12.45;;;3.90;99.90;;;;;;4969106;29;20031;-86
2021/12/06 06:10:51;;;;;;;27.67;12.10;;;3.90;99.90;;;;;;5008885;23;20075;-85
2021/12/06 06:13:19;;;;;;;28.92;11.70;;;3.90;99.90;;;;;;4969581;29;20037;-85
2021/12/06 06:15:46;;;;;;;25.50;12.43;;;3.80;99.90;;;;;;4976860;28;20054;-84
2021/12/06 06:18:12;;;;;;;30.63;14.32;;;3.90;99.90;;;;;;4964026;28;20062;-84
2021/12/06 06:20:44;;;;;;;24.50;12.65;;;3.90;99.90;;;;;;4980931;28;20023;-84
2021/12/06 06:23:11;;;;;;;26.95;12.45;;;3.90;99.90;;;;;;4963675;29;20027;-83
2021/12/06 06:25:38;;;;;;;25.90;12.82;;;3.90;99.90;;;;;;4979791;28;20040;-84
2021/12/06 06:28:04;;;;;;;23.80;11.48;;;3.90;99.90;;;;;;4975139;29;20035;-84
2021/12/06 06:30:31;;;;;;;26.17;11.63;;;3.90;99.90;;;;;;4974121;28;20019;-85
2021/12/06 06:32:56;;;;;;;27.90;11.98;;;3.90;99.90;;;;;;4956876;29;20031;-84
2021/12/06 06:35:23;;;;;;;26.88;12.20;;;3.90;99.90;;;;;;4955427;29;20050;-85
2021/12/06 06:37:49;;;;;;;30.48;12.93;;;3.90;99.90;;;;;;4938328;29;20035;-87
2021/12/06 06:40:15;;;;;;;26.30;12.38;;;3.90;99.90;;;;;;4971687;28;20058;-85
2021/12/06 06:42:42;;;;;;;24.08;11.52;;;4.00;99.90;;;;;;4973054;29;20108;-85
2021/12/06 06:45:10;;;;;;;26.88;12.40;;;3.90;99.90;;;;;;4973789;29;20038;-85
2021/12/06 06:47:36;;;;;;;25.58;12.18;;;3.90;99.90;;;;;;4973389;29;20127;-85
2021/12/06 06:50:02;;;;;;;27.30;13.05;;;3.90;99.90;;;;;;4974649;28;20027;-85
2021/12/06 06:52:27;;;;;;;19.67;11.60;;;3.90;99.90;;;;;;4959842;28;20035;-84
2021/12/06 06:54:53;;;;;;;25.55;12.85;;;3.90;99.90;;;;;;4978154;29;20027;-85
2021/12/06 06:57:19;;;;;;;26.58;12.45;;;3.90;99.90;;;;;;4977662;29;20059;-84
2021/12/06 06:59:45;;;;;;;27.85;12.45;;;3.90;99.90;;;;;;4958309;28;20027;-85
2021/12/06 07:02:12;;;;;;;25.98;12.85;;;3.90;99.90;;;;;;4957258;29;20062;-83
2021/12/06 07:04:38;;;;;;;25.73;12.68;;;4.00;99.90;;;;;;4957212;29;20032;-84
2021/12/06 07:07:04;;;;;;;28.52;12.40;;;4.00;99.90;;;;;;4978272;28;20040;-84
2021/12/06 07:09:30;;;;;;;22.13;12.30;;;4.00;99.90;;;;;;4946601;28;20031;-84
2021/12/06 07:11:59;;;;;;;22.95;11.95;;;3.90;99.90;;;;;;4976644;28;20039;-87
2021/12/06 07:14:25;;;;;;;27.92;13.00;;;4.00;99.90;;;;;;4972547;29;20049;-84
2021/12/06 07:16:51;;;;;;;26.85;13.73;;;4.00;99.90;;;;;;4952130;29;20027;-85
2021/12/06 07:19:17;;;;;;;24.80;13.05;;;4.00;99.90;;;;;;4949893;29;20030;-84
2021/12/06 07:21:43;;;;;;;28.40;13.18;;;4.10;99.90;;;;;;4973635;28;20034;-84
2021/12/06 07:24:09;;;;;;;27.00;12.88;;;4.10;99.90;;;;;;4963191;28;20058;-83
2021/12/06 07:26:35;;;;;;;32.47;13.00;;;4.20;99.90;;;;;;4979526;28;20075;-84
2021/12/06 07:29:02;;;;;;;27.05;13.15;;;4.20;99.90;;;;;;4946075;28;20047;-82
2021/12/06 07:31:28;;;;;;;27.45;12.35;;;4.30;99.90;;;;;;4978207;28;20031;-81
2021/12/06 07:33:54;;;;;;;29.15;12.57;;;4.40;99.90;;;;;;4967291;28;20107;-81
2021/12/06 07:36:22;;;;;;;29.83;13.43;;;4.40;99.90;;;;;;4954891;28;20023;-82
2021/12/06 07:38:50;;;;;;;26.40;12.07;;;4.40;99.90;;;;;;4973022;28;20028;-82
2021/12/06 07:41:18;;;;;;;22.42;11.73;;;4.50;99.90;;;;;;4966142;28;20058;-81
2021/12/06 07:43:44;;;;;;;29.75;12.65;;;4.50;99.90;;;;;;4969212;28;20035;-82
2021/12/06 07:46:10;;;;;;;27.83;11.65;;;4.50;99.90;;;;;;4978536;28;20050;-81
2021/12/06 07:48:37;;;;;;;21.17;10.43;;;4.60;99.90;;;;;;4978955;28;20031;-82
2021/12/06 07:51:05;;;;;;;25.25;11.20;;;4.60;99.90;;;;;;4978590;28;20058;-82
2021/12/06 07:53:32;;;;;;;20.90;9.45;;;4.60;99.90;;;;;;4946169;28;20039;-82
2021/12/06 07:55:58;;;;;;;22.52;10.52;;;4.60;99.90;;;;;;4962064;28;20032;-84
2021/12/06 07:58:25;;;;;;;20.67;10.30;;;4.70;99.90;;;;;;4977398;28;20039;-83
2021/12/06 08:00:52;;;;;;;24.45;9.63;;;4.70;99.90;;;;;;4969433;29;20438;-84
2021/12/06 08:03:21;;;;;;;23.08;9.65;;;4.70;99.90;;;;;;4968630;29;20039;-83
2021/12/06 08:05:49;;;;;;;25.00;10.07;;;4.70;99.90;;;;;;4973246;29;20432;-83
2021/12/06 08:08:25;;;;;;;21.45;10.40;;;4.70;99.90;;;;;;4973501;29;20023;-84
2021/12/06 08:10:54;;;;;;;21.38;10.60;;;4.70;99.90;;;;;;4970650;29;20035;-84
2021/12/06 08:13:24;;;;;;;18.90;9.55;;;4.70;99.90;;;;;;4937230;29;20038;-84
2021/12/06 08:15:52;;;;;;;29.05;12.35;;;4.70;99.90;;;;;;4987377;28;20556;-82
2021/12/06 08:18:19;;;;;;;25.23;11.13;;;4.60;99.90;;;;;;4957294;29;20007;-81
2021/12/06 08:20:45;;;;;;;20.90;10.32;;;4.60;99.90;;;;;;4975129;29;20220;-83
2021/12/06 08:23:12;;;;;;;19.35;9.57;;;4.70;99.90;;;;;;4958443;29;20066;-83
2021/12/06 08:25:38;;;;;;;22.45;10.43;;;4.70;99.90;;;;;;4975769;29;20028;-82
2021/12/06 08:28:05;;;;;;;19.52;9.93;;;4.80;99.90;;;;;;4977662;29;20019;-82
2021/12/06 08:30:31;;;;;;;23.92;10.48;;;4.90;99.90;;;;;;4977987;28;20063;-83
2021/12/06 08:33:00;;;;;;;22.60;10.15;;;4.90;99.90;;;;;;4947702;28;20023;-82
2021/12/06 08:35:28;;;;;;;21.45;9.63;;;4.80;99.90;;;;;;4958074;29;20038;-82
2021/12/06 08:37:56;;;;;;;19.15;9.05;;;4.90;99.90;;;;;;4958806;28;20016;-83
2021/12/06 08:40:22;;;;;;;19.02;9.60;;;4.90;99.90;;;;;;4944377;28;20024;-82
2021/12/06 08:42:48;;;;;;;21.88;9.20;;;5.00;99.90;;;;;;4962962;28;20031;-81
2021/12/06 08:45:14;;;;;;;22.17;9.32;;;5.00;99.90;;;;;;4963059;28;20038;-82
2021/12/06 08:47:41;;;;;;;16.35;9.63;;;5.10;99.90;;;;;;4961177;28;20036;-82
2021/12/06 08:50:10;;;;;;;19.80;9.63;;;5.10;99.90;;;;;;4962164;29;20028;-84
2021/12/06 08:52:36;;;;;;;15.05;8.90;;;5.20;99.90;;;;;;4959979;29;20059;-84
2021/12/06 08:55:05;;;;;;;21.63;8.90;;;5.30;99.90;;;;;;4959733;29;20042;-83
2021/12/06 08:57:31;;;;;;;22.92;9.85;;;5.40;99.90;;;;;;4962197;28;20019;-83
2021/12/06 08:59:58;;;;;;;22.88;9.18;;;5.50;99.90;;;;;;4961290;29;20079;-83
2021/12/06 09:02:24;;;;;;;23.48;9.35;;;5.60;99.90;;;;;;4958538;29;20403;-83
2021/12/06 09:04:50;;;;;;;24.95;9.35;;;5.70;99.90;;;;;;4959114;29;20096;-84
2021/12/06 09:07:16;;;;;;;19.80;9.93;;;5.70;99.90;;;;;;4979166;29;20031;-84
2021/12/06 09:09:46;;;;;;;20.35;8.80;;;5.70;99.90;;;;;;4979150;28;20019;-84
2021/12/06 09:12:21;;;;;;;18.02;8.73;;;5.70;99.90;;;;;;4976392;29;20023;-85
2021/12/06 09:14:47;;;;;;;18.33;8.88;;;5.70;99.90;;;;;;4976940;29;20035;-83
2021/12/06 09:17:14;;;;;;;27.48;9.85;;;5.80;99.90;;;;;;4979852;29;20026;-85
2021/12/06 09:19:41;;;;;;;21.90;9.38;;;5.80;99.90;;;;;;4980054;28;20051;-83
2021/12/06 09:22:07;;;;;;;19.75;9.57;;;5.80;99.90;;;;;;4964559;29;20553;-83
2021/12/06 09:24:33;;;;;;;23.88;9.63;;;5.70;99.90;;;;;;4980873;28;20035;-84
2021/12/06 09:27:12;;;;;;;18.73;9.20;;;5.70;99.90;;;;;;4982151;28;20011;-83
2021/12/06 09:29:38;;;;;;;24.23;9.93;;;5.70;99.90;;;;;;4981255;28;20046;-84
2021/12/06 09:32:08;;;;;;;22.88;9.95;;;5.60;99.90;;;;;;4979327;28;20031;-86
2021/12/06 09:34:38;;;;;;;21.85;10.35;;;5.60;99.90;;;;;;4978282;28;20035;-84
2021/12/06 09:37:06;;;;;;;18.15;9.27;;;5.60;99.90;;;;;;4958956;29;20031;-84
2021/12/06 09:39:32;;;;;;;24.40;10.98;;;5.80;99.90;;;;;;4972476;29;20003;-84
2021/12/06 09:41:59;;;;;;;21.10;9.95;;;5.80;99.90;;;;;;4969534;29;20038;-84
2021/12/06 09:44:25;;;;;;;23.80;10.10;;;6.00;99.90;;;;;;4980848;28;20185;-86
2021/12/06 09:46:52;;;;;;;21.73;10.30;;;6.00;99.90;;;;;;4964641;28;20019;-84
2021/12/06 09:49:22;;;;;;;35.22;10.38;;;6.10;99.90;;;;;;4981745;28;20030;-84
2021/12/06 09:51:57;;;;;;;17.98;8.60;;;6.30;99.90;;;;;;4964391;28;20024;-84
2021/12/06 09:54:26;;;;;;;23.23;10.52;;;6.50;99.90;;;;;;4981746;28;20099;-84
2021/12/06 09:56:54;;;;;;;17.52;9.25;;;6.60;99.90;;;;;;4965101;28;20055;-84
2021/12/06 09:59:23;;;;;;;19.75;9.07;;;6.60;99.90;;;;;;4981949;28;20099;-84
2021/12/06 10:02:02;;;;;;;20.20;9.68;;;6.80;99.90;;;;;;4981783;28;20008;-83
2021/12/06 10:04:31;;;;;;;20.73;10.27;;;6.80;99.90;;;;;;4964858;28;20045;-83
2021/12/06 10:06:58;;;;;;;18.85;9.40;;;6.70;99.90;;;;;;4979590;28;20062;-85
2021/12/06 10:09:24;;;;;;;19.23;9.88;;;6.70;99.90;;;;;;4951997;29;20050;-85
2021/12/06 10:11:53;;;;;;;18.77;9.75;;;6.90;99.90;;;;;;4970540;28;20027;-84
2021/12/06 10:14:20;;;;;;;23.02;10.50;;;7.00;99.90;;;;;;4954350;29;20046;-84
2021/12/06 10:16:46;;;;;;;24.95;10.05;;;7.10;99.90;;;;;;4968133;29;20035;-84
2021/12/06 10:19:14;;;;;;;19.95;9.85;;;6.90;99.90;;;;;;4970226;29;20086;-85
2021/12/06 10:21:40;;;;;;;21.60;11.10;;;6.90;99.90;;;;;;4971981;28;20034;-85
2021/12/06 10:24:18;;;;;;;29.05;10.88;;;6.80;99.90;;;;;;4953301;29;20039;-85
2021/12/06 10:26:45;;;;;;;25.98;10.32;;;6.80;99.90;;;;;;4970284;29;20046;-84
2021/12/06 10:29:20;;;;;;;15.68;9.63;;;6.80;99.90;;;;;;4971700;29;20091;-84
2021/12/06 10:31:50;;;;;;;24.95;10.77;;;6.80;99.90;;;;;;4970573;28;20502;-84
2021/12/06 10:34:24;;;;;;;19.30;9.93;;;6.70;99.90;;;;;;4952650;29;20106;-85
2021/12/06 10:36:51;;;;;;;23.02;11.02;;;6.60;99.90;;;;;;4960301;29;20031;-84
2021/12/06 10:39:17;;;;;;;28.25;10.48;;;6.40;99.90;;;;;;4954298;29;20023;-86
2021/12/06 10:41:47;;;;;;;23.58;10.68;;;6.30;99.90;;;;;;4975983;28;20098;-86
2021/12/06 10:44:14;;;;;;;23.98;11.02;;;6.20;99.90;;;;;;4973770;29;20023;-86
2021/12/06 10:46:48;;;;;;;21.80;11.35;;;6.10;99.90;;;;;;4974641;29;20027;-85
2021/12/06 10:49:22;;;;;;;27.58;11.43;;;6.20;99.90;;;;;;4974549;29;20114;-85
2021/12/06 10:51:48;;;;;;;24.45;12.25;;;6.20;99.90;;;;;;4960184;28;20042;-85
2021/12/06 10:54:35;;;;;;;26.00;12.05;;;6.00;99.90;;;;;;4937426;29;20034;-85
2021/12/06 10:57:08;;;;;;;23.67;11.77;;;6.00;99.90;;;;;;4951881;29;20107;-83
2021/12/06 10:59:37;;;;;;;21.47;9.80;;;6.10;99.90;;;;;;4970911;29;20098;-86
2021/12/06 11:02:09;;;;;;;26.15;11.23;;;6.10;99.90;;;;;;4969636;29;20278;-84
2021/12/06 11:04:37;;;;;;;22.02;10.63;;;6.10;99.90;;;;;;4971341;28;20094;-84
2021/12/06 11:07:08;;;;;;;18.33;10.73;;;6.10;99.90;;;;;;4958492;29;20102;-85
2021/12/06 11:09:41;;;;;;;23.88;10.05;;;6.00;99.90;;;;;;4973277;28;20075;-83
2021/12/06 11:12:08;;;;;;;24.80;10.70;;;5.90;99.90;;;;;;4965748;29;20054;-86
2021/12/06 11:14:41;;;;;;;24.58;11.05;;;5.90;99.90;;;;;;4965929;29;20035;-85
2021/12/06 11:17:10;;;;;;;23.35;10.85;;;6.00;99.90;;;;;;4974535;29;20082;-84
2021/12/06 11:19:38;;;;;;;23.75;10.20;;;6.00;99.90;;;;;;4961065;28;20042;-86
2021/12/06 11:22:08;;;;;;;20.55;10.57;;;6.00;99.90;;;;;;4964797;29;20035;-85
2021/12/06 11:24:39;;;;;;;20.73;9.80;;;6.10;99.90;;;;;;4965149;29;20027;-85
2021/12/06 11:27:15;;;;;;;22.77;11.05;;;6.10;99.90;;;;;;4970652;29;20031;-86
2021/12/06 11:29:44;;;;;;;22.58;11.00;;;6.10;99.90;;;;;;4974109;28;20094;-85
2021/12/06 11:32:17;;;;;;;24.88;10.88;;;6.10;99.90;;;;;;4976004;29;20035;-84
2021/12/06 11:35:00;;;;;;;27.35;10.48;;;6.10;99.90;;;;;;4975710;29;20067;-84
2021/12/06 11:37:29;;;;;;;16.77;10.43;;;5.90;99.90;;;;;;4959840;29;20059;-85
2021/12/06 11:40:06;;;;;;;20.20;10.20;;;6.00;99.90;;;;;;4975220;28;20090;-84
2021/12/06 11:42:45;;;;;;;23.88;10.77;;;6.00;99.90;;;;;;4976234;29;20043;-85
2021/12/06 11:45:11;;;;;;;21.73;10.90;;;6.00;99.90;;;;;;4958961;29;20031;-84
2021/12/06 11:47:37;;;;;;;23.08;10.60;;;6.10;99.90;;;;;;4942974;29;20115;-84
2021/12/06 11:50:04;;;;;;;32.38;11.68;;;6.10;99.90;;;;;;4959215;29;20036;-84
2021/12/06 11:52:32;;;;;;;22.17;11.38;;;6.00;99.90;;;;;;4952525;29;20387;-85
2021/12/06 11:55:10;;;;;;;26.25;11.27;;;6.00;99.90;;;;;;4966659;29;20087;-84
2021/12/06 11:57:44;;;;;;;28.23;11.02;;;6.00;99.90;;;;;;4975343;28;20108;-84
2021/12/06 12:00:15;;;;;;;25.60;11.50;;;6.00;99.90;;;;;;4949421;29;20411;-85
2021/12/06 12:02:44;;;;;;;24.17;10.52;;;6.10;99.90;;;;;;4950318;29;20046;-83
2021/12/06 12:05:34;;;;;;;22.00;10.32;;;6.10;99.90;;;;;;4966791;29;20035;-85
2021/12/06 12:08:05;;;;;;;25.13;11.45;;;6.10;99.90;;;;;;4968399;29;20031;-83
2021/12/06 12:10:37;;;;;;;18.92;9.77;;;6.30;99.90;;;;;;5002718;23;20063;-84
2021/12/06 12:13:08;;;;;;;21.27;10.80;;;6.50;99.90;;;;;;4979190;28;20015;-83
2021/12/06 12:15:34;;;;;;;27.05;10.15;;;6.60;99.90;;;;;;4998421;28;20030;-82
2021/12/06 12:18:00;;;;;;;14.80;8.32;;;6.70;99.90;;;;;;4983357;28;20023;-83
2021/12/06 12:20:27;;;;;;;17.30;8.40;;;6.60;99.90;;;;;;4999341;28;20054;-83
2021/12/06 12:23:00;;;;;;;18.55;8.90;;;6.50;99.90;;;;;;4964651;28;20026;-84
2021/12/06 12:25:32;;;;;;;22.10;8.93;;;6.50;99.90;;;;;;4976729;28;20027;-85
2021/12/06 12:28:13;;;;;;;22.70;8.70;;;6.40;99.90;;;;;;4993790;28;20034;-84
2021/12/06 12:30:40;;;;;;;21.52;9.80;;;6.40;99.90;;;;;;4993448;28;20031;-82
2021/12/06 12:33:08;;;;;;;18.23;9.73;;;6.40;99.90;;;;;;4977375;28;20035;-82
2021/12/06 12:35:37;;;;;;;18.05;9.15;;;6.50;99.90;;;;;;4981494;28;20041;-84
2021/12/06 12:38:04;;;;;;;25.10;9.25;;;6.70;99.90;;;;;;5001190;28;20019;-83
2021/12/06 12:40:46;;;;;;;18.73;8.93;;;6.80;99.90;;;;;;4978870;28;20031;-82
2021/12/06 12:43:16;;;;;;;21.92;9.88;;;6.90;99.90;;;;;;4976677;28;20061;-83
2021/12/06 12:46:04;;;;;;;17.95;9.15;;;7.00;99.90;;;;;;4995238;28;20030;-84
2021/12/06 12:48:55;;;;;;;21.55;9.07;;;7.10;99.90;;;;;;4994057;28;20039;-82
2021/12/06 12:51:33;;;;;;;17.58;8.00;;;7.00;99.90;;;;;;4976673;28;20038;-84
2021/12/06 12:54:14;;;;;;;23.05;9.98;;;6.90;99.90;;;;;;4992018;28;20031;-83
2021/12/06 12:57:14;;;;;;;17.83;8.02;;;6.90;99.90;;;;;;4995333;28;20035;-81
2021/12/06 12:59:50;;;;;;;20.38;9.32;;;6.70;99.90;;;;;;4975127;28;20047;-84
2021/12/06 13:02:34;;;;;;;21.45;9.13;;;6.70;99.90;;;;;;4992323;28;20030;-83
2021/12/06 13:05:00;;;;;;;20.35;9.25;;;6.70;99.90;;;;;;4975912;28;20085;-81